sensor_id;sensor_type;location;lat;lon;timestamp;P1;durP1;ratioP1;P2;durP2;ratioP2
32451;SDS011;45528;52.102;5.242;2022-10-31T00:00:25;15.1;;;7.9;;
32451;SDS011;45528;52.102;5.242;2022-10-31T00:02:01;15.8;;;8.2;;
32451;SDS011;45528;52.102;5.242;2022-10-31T00:05:13;17.2;;;8.2;;
32451;SDS011;45528;52.102;5.242;2022-10-31T00:06:50;14.1;;;8.1;;
32451;SDS011;45528;52.102;5.242;2022-10-31T00:08:26;13.1;;;8.1;;
32451;SDS011;45528;52.102;5.242;2022-10-31T00:11:42;12.5;;;8.1;;
32451;SDS011;45528;52.102;5.242;2022-10-31T00:13:18;15.1;;;8.5;;
32451;SDS011;45528;52.102;5.242;2022-10-31T00:14:54;13.0;;;8.6;;
32451;SDS011;45528;52.102;5.242;2022-10-31T00:16:30;14.3;;;8.71;;
32451;SDS011;45528;52.102;5.242;2022-10-31T00:19:46;17.3;;;8.81;;
32451;SDS011;45528;52.102;5.242;2022-10-31T00:21:22;16.2;;;8.2;;
32451;SDS011;45528;52.102;5.242;2022-10-31T00:23:01;14.2;;;8.31;;
32451;SDS011;45528;52.102;5.242;2022-10-31T00:26:16;12.9;;;8.31;;
32451;SDS011;45528;52.102;5.242;2022-10-31T00:27:54;13.9;;;8.2;;
32451;SDS011;45528;52.102;5.242;2022-10-31T00:29:31;13.0;;;8.5;;
32451;SDS011;45528;52.102;5.242;2022-10-31T00:31:09;15.9;;;8.9;;
32451;SDS011;45528;52.102;5.242;2022-10-31T00:34:23;14.7;;;8.81;;
32451;SDS011;45528;52.102;5.242;2022-10-31T00:35:59;17.41;;;8.2;;
32451;SDS011;45528;52.102;5.242;2022-10-31T00:37:37;14.1;;;8.4;;
32451;SDS011;45528;52.102;5.242;2022-10-31T00:40:49;13.5;;;8.5;;
32451;SDS011;45528;52.102;5.242;2022-10-31T00:42:26;13.8;;;8.9;;
32451;SDS011;45528;52.102;5.242;2022-10-31T00:44:03;15.1;;;9.4;;
32451;SDS011;45528;52.102;5.242;2022-10-31T00:45:40;16.61;;;9.21;;
32451;SDS011;45528;52.102;5.242;2022-10-31T00:48:53;14.4;;;9.21;;
32451;SDS011;45528;52.102;5.242;2022-10-31T00:50:29;15.1;;;9.5;;
32451;SDS011;45528;52.102;5.242;2022-10-31T00:52:05;16.2;;;9.6;;
32451;SDS011;45528;52.102;5.242;2022-10-31T00:55:17;15.4;;;9.71;;
32451;SDS011;45528;52.102;5.242;2022-10-31T00:56:53;15.7;;;10.1;;
32451;SDS011;45528;52.102;5.242;2022-10-31T00:58:30;16.4;;;9.9;;
32451;SDS011;45528;52.102;5.242;2022-10-31T01:01:44;15.7;;;9.9;;
32451;SDS011;45528;52.102;5.242;2022-10-31T01:03:21;16.0;;;9.31;;
32451;SDS011;45528;52.102;5.242;2022-10-31T01:04:57;17.5;;;9.5;;
32451;SDS011;45528;52.102;5.242;2022-10-31T01:08:10;13.9;;;9.81;;
32451;SDS011;45528;52.102;5.242;2022-10-31T01:09:46;15.9;;;9.71;;
32451;SDS011;45528;52.102;5.242;2022-10-31T01:11:23;16.11;;;9.6;;
32451;SDS011;45528;52.102;5.242;2022-10-31T01:12:59;15.4;;;9.5;;
32451;SDS011;45528;52.102;5.242;2022-10-31T01:16:12;14.2;;;9.31;;
32451;SDS011;45528;52.102;5.242;2022-10-31T01:17:51;15.8;;;9.5;;
32451;SDS011;45528;52.102;5.242;2022-10-31T01:19:27;14.2;;;9.21;;
32451;SDS011;45528;52.102;5.242;2022-10-31T01:22:43;15.3;;;9.81;;
32451;SDS011;45528;52.102;5.242;2022-10-31T01:24:19;16.4;;;10.3;;
32451;SDS011;45528;52.102;5.242;2022-10-31T01:26:01;14.2;;;9.31;;
32451;SDS011;45528;52.102;5.242;2022-10-31T01:27:43;13.3;;;9.71;;
32451;SDS011;45528;52.102;5.242;2022-10-31T01:30:55;16.11;;;8.9;;
32451;SDS011;45528;52.102;5.242;2022-10-31T01:32:35;16.0;;;9.9;;
32451;SDS011;45528;52.102;5.242;2022-10-31T01:34:13;11.8;;;9.21;;
32451;SDS011;45528;52.102;5.242;2022-10-31T01:37:30;16.0;;;10.1;;
32451;SDS011;45528;52.102;5.242;2022-10-31T01:39:08;16.2;;;9.9;;
32451;SDS011;45528;52.102;5.242;2022-10-31T01:40:46;19.11;;;10.21;;
32451;SDS011;45528;52.102;5.242;2022-10-31T01:42:22;15.3;;;9.9;;
32451;SDS011;45528;52.102;5.242;2022-10-31T01:45:38;15.5;;;9.4;;
32451;SDS011;45528;52.102;5.242;2022-10-31T01:47:15;15.7;;;9.31;;
32451;SDS011;45528;52.102;5.242;2022-10-31T01:48:56;18.8;;;10.21;;
32451;SDS011;45528;52.102;5.242;2022-10-31T01:50:35;19.0;;;10.0;;
32451;SDS011;45528;52.102;5.242;2022-10-31T01:54:00;14.5;;;10.1;;
32451;SDS011;45528;52.102;5.242;2022-10-31T01:55:42;15.8;;;10.0;;
32451;SDS011;45528;52.102;5.242;2022-10-31T01:57:21;15.3;;;10.0;;
32451;SDS011;45528;52.102;5.242;2022-10-31T01:58:58;15.7;;;10.21;;
32451;SDS011;45528;52.102;5.242;2022-10-31T02:02:14;14.2;;;9.4;;
32451;SDS011;45528;52.102;5.242;2022-10-31T02:03:53;16.4;;;10.1;;
32451;SDS011;45528;52.102;5.242;2022-10-31T02:05:31;17.3;;;9.81;;
32451;SDS011;45528;52.102;5.242;2022-10-31T02:08:50;15.6;;;9.81;;
32451;SDS011;45528;52.102;5.242;2022-10-31T02:10:27;15.3;;;9.9;;
32451;SDS011;45528;52.102;5.242;2022-10-31T02:12:06;17.2;;;10.1;;
32451;SDS011;45528;52.102;5.242;2022-10-31T02:13:46;17.41;;;9.9;;
32451;SDS011;45528;52.102;5.242;2022-10-31T02:17:00;16.61;;;9.9;;
32451;SDS011;45528;52.102;5.242;2022-10-31T02:18:36;16.9;;;10.1;;
32451;SDS011;45528;52.102;5.242;2022-10-31T02:20:14;16.0;;;10.0;;
32451;SDS011;45528;52.102;5.242;2022-10-31T02:23:51;20.11;;;10.4;;
32451;SDS011;45528;52.102;5.242;2022-10-31T02:26:50;14.5;;;9.71;;
32451;SDS011;45528;52.102;5.242;2022-10-31T02:29:20;16.11;;;9.6;;
32451;SDS011;45528;52.102;5.242;2022-10-31T02:32:12;13.7;;;9.4;;
32451;SDS011;45528;52.102;5.242;2022-10-31T02:33:55;21.8;;;10.4;;
32451;SDS011;45528;52.102;5.242;2022-10-31T02:35:42;15.9;;;9.81;;
32451;SDS011;45528;52.102;5.242;2022-10-31T02:37:31;16.7;;;9.71;;
32451;SDS011;45528;52.102;5.242;2022-10-31T02:39:22;14.7;;;9.71;;
32451;SDS011;45528;52.102;5.242;2022-10-31T02:41:04;15.7;;;9.4;;
32451;SDS011;45528;52.102;5.242;2022-10-31T02:44:35;15.8;;;9.9;;
32451;SDS011;45528;52.102;5.242;2022-10-31T02:46:19;16.61;;;9.81;;
32451;SDS011;45528;52.102;5.242;2022-10-31T02:48:06;16.2;;;9.4;;
32451;SDS011;45528;52.102;5.242;2022-10-31T02:49:48;14.5;;;9.6;;
32451;SDS011;45528;52.102;5.242;2022-10-31T02:51:32;13.4;;;9.31;;
32451;SDS011;45528;52.102;5.242;2022-10-31T02:54:44;17.0;;;9.81;;
32451;SDS011;45528;52.102;5.242;2022-10-31T02:56:23;19.61;;;10.0;;
32451;SDS011;45528;52.102;5.242;2022-10-31T02:58:00;17.0;;;10.4;;
32451;SDS011;45528;52.102;5.242;2022-10-31T02:59:42;13.8;;;9.1;;
32451;SDS011;45528;52.102;5.242;2022-10-31T03:03:49;15.5;;;9.4;;
32451;SDS011;45528;52.102;5.242;2022-10-31T03:05:40;13.6;;;9.5;;
32451;SDS011;45528;52.102;5.242;2022-10-31T03:07:29;14.3;;;9.71;;
32451;SDS011;45528;52.102;5.242;2022-10-31T03:09:18;13.4;;;8.81;;
32451;SDS011;45528;52.102;5.242;2022-10-31T03:11:01;15.6;;;9.5;;
32451;SDS011;45528;52.102;5.242;2022-10-31T03:12:43;14.2;;;9.21;;
32451;SDS011;45528;52.102;5.242;2022-10-31T03:14:29;13.0;;;8.71;;
32451;SDS011;45528;52.102;5.242;2022-10-31T03:17:57;13.7;;;9.21;;
32451;SDS011;45528;52.102;5.242;2022-10-31T03:19:40;13.1;;;8.81;;
32451;SDS011;45528;52.102;5.242;2022-10-31T03:21:21;12.4;;;9.21;;
32451;SDS011;45528;52.102;5.242;2022-10-31T03:23:04;13.1;;;9.5;;
32451;SDS011;45528;52.102;5.242;2022-10-31T03:24:44;17.41;;;9.81;;
32451;SDS011;45528;52.102;5.242;2022-10-31T03:28:01;3.5;;;1.3;;
32451;SDS011;45528;52.102;5.242;2022-10-31T03:29:42;12.1;;;7.1;;
32451;SDS011;45528;52.102;5.242;2022-10-31T03:31:22;14.7;;;9.81;;
32451;SDS011;45528;52.102;5.242;2022-10-31T03:33:09;18.11;;;9.4;;
32451;SDS011;45528;52.102;5.242;2022-10-31T03:36:32;14.9;;;9.5;;
32451;SDS011;45528;52.102;5.242;2022-10-31T03:38:11;13.8;;;9.31;;
32451;SDS011;45528;52.102;5.242;2022-10-31T03:39:50;16.2;;;10.0;;
32451;SDS011;45528;52.102;5.242;2022-10-31T03:41:29;16.4;;;10.3;;
32451;SDS011;45528;52.102;5.242;2022-10-31T03:44:58;17.0;;;9.71;;
32451;SDS011;45528;52.102;5.242;2022-10-31T03:46:40;16.0;;;10.3;;
32451;SDS011;45528;52.102;5.242;2022-10-31T03:48:18;17.3;;;10.21;;
32451;SDS011;45528;52.102;5.242;2022-10-31T03:49:56;15.9;;;10.6;;
32451;SDS011;45528;52.102;5.242;2022-10-31T03:53:19;21.6;;;11.0;;
32451;SDS011;45528;52.102;5.242;2022-10-31T03:55:04;19.11;;;10.6;;
32451;SDS011;45528;52.102;5.242;2022-10-31T03:56:50;16.7;;;10.21;;
32451;SDS011;45528;52.102;5.242;2022-10-31T03:58:31;14.5;;;9.81;;
32451;SDS011;45528;52.102;5.242;2022-10-31T04:01:51;17.11;;;10.1;;
32451;SDS011;45528;52.102;5.242;2022-10-31T04:03:38;17.2;;;10.3;;
32451;SDS011;45528;52.102;5.242;2022-10-31T04:05:15;15.3;;;10.8;;
32451;SDS011;45528;52.102;5.242;2022-10-31T04:06:53;16.7;;;10.3;;
32451;SDS011;45528;52.102;5.242;2022-10-31T04:10:16;17.11;;;10.6;;
32451;SDS011;45528;52.102;5.242;2022-10-31T04:11:55;17.41;;;11.2;;
32451;SDS011;45528;52.102;5.242;2022-10-31T04:13:35;15.5;;;10.8;;
32451;SDS011;45528;52.102;5.242;2022-10-31T04:15:15;16.4;;;11.5;;
32451;SDS011;45528;52.102;5.242;2022-10-31T04:18:28;18.11;;;12.2;;
32451;SDS011;45528;52.102;5.242;2022-10-31T04:20:05;20.0;;;11.2;;
32451;SDS011;45528;52.102;5.242;2022-10-31T04:21:43;18.2;;;12.2;;
32451;SDS011;45528;52.102;5.242;2022-10-31T04:23:22;17.2;;;11.3;;
32451;SDS011;45528;52.102;5.242;2022-10-31T04:26:36;16.8;;;11.6;;
32451;SDS011;45528;52.102;5.242;2022-10-31T04:28:13;20.9;;;12.8;;
32451;SDS011;45528;52.102;5.242;2022-10-31T04:29:49;17.91;;;12.0;;
32451;SDS011;45528;52.102;5.242;2022-10-31T04:33:01;20.3;;;12.7;;
32451;SDS011;45528;52.102;5.242;2022-10-31T04:34:38;18.2;;;12.1;;
32451;SDS011;45528;52.102;5.242;2022-10-31T04:36:14;18.2;;;12.5;;
32451;SDS011;45528;52.102;5.242;2022-10-31T04:39:26;20.3;;;12.3;;
32451;SDS011;45528;52.102;5.242;2022-10-31T04:41:02;20.3;;;12.9;;
32451;SDS011;45528;52.102;5.242;2022-10-31T04:42:38;19.7;;;12.9;;
32451;SDS011;45528;52.102;5.242;2022-10-31T04:44:14;19.0;;;12.4;;
32451;SDS011;45528;52.102;5.242;2022-10-31T04:47:27;17.91;;;12.5;;
32451;SDS011;45528;52.102;5.242;2022-10-31T04:49:03;18.5;;;12.0;;
32451;SDS011;45528;52.102;5.242;2022-10-31T04:50:39;19.3;;;12.1;;
32451;SDS011;45528;52.102;5.242;2022-10-31T04:53:52;19.8;;;12.8;;
32451;SDS011;45528;52.102;5.242;2022-10-31T04:55:29;21.2;;;13.3;;
32451;SDS011;45528;52.102;5.242;2022-10-31T04:57:06;18.41;;;12.5;;
32451;SDS011;45528;52.102;5.242;2022-10-31T05:00:19;19.11;;;12.9;;
32451;SDS011;45528;52.102;5.242;2022-10-31T05:01:57;20.41;;;12.5;;
32451;SDS011;45528;52.102;5.242;2022-10-31T05:03:33;20.41;;;12.5;;
32451;SDS011;45528;52.102;5.242;2022-10-31T05:05:09;20.6;;;12.8;;
32451;SDS011;45528;52.102;5.242;2022-10-31T05:08:22;19.41;;;13.3;;
32451;SDS011;45528;52.102;5.242;2022-10-31T05:09:58;19.91;;;13.0;;
32451;SDS011;45528;52.102;5.242;2022-10-31T05:11:34;19.2;;;13.6;;
32451;SDS011;45528;52.102;5.242;2022-10-31T05:14:46;19.91;;;12.9;;
32451;SDS011;45528;52.102;5.242;2022-10-31T05:16:23;20.5;;;12.8;;
32451;SDS011;45528;52.102;5.242;2022-10-31T05:17:59;17.2;;;12.8;;
32451;SDS011;45528;52.102;5.242;2022-10-31T05:21:12;18.8;;;13.2;;
32451;SDS011;45528;52.102;5.242;2022-10-31T05:22:49;17.7;;;12.9;;
32451;SDS011;45528;52.102;5.242;2022-10-31T05:24:26;20.6;;;13.7;;
32451;SDS011;45528;52.102;5.242;2022-10-31T05:26:03;22.1;;;13.6;;
32451;SDS011;45528;52.102;5.242;2022-10-31T05:29:17;19.0;;;13.1;;
32451;SDS011;45528;52.102;5.242;2022-10-31T05:30:53;21.3;;;13.8;;
32451;SDS011;45528;52.102;5.242;2022-10-31T05:32:35;22.7;;;13.8;;
32451;SDS011;45528;52.102;5.242;2022-10-31T05:35:48;19.5;;;14.1;;
32451;SDS011;45528;52.102;5.242;2022-10-31T05:37:25;22.1;;;13.6;;
32451;SDS011;45528;52.102;5.242;2022-10-31T05:39:01;19.91;;;13.0;;
32451;SDS011;45528;52.102;5.242;2022-10-31T05:42:14;18.41;;;12.8;;
32451;SDS011;45528;52.102;5.242;2022-10-31T05:43:51;21.7;;;14.2;;
32451;SDS011;45528;52.102;5.242;2022-10-31T05:45:28;21.0;;;13.6;;
32451;SDS011;45528;52.102;5.242;2022-10-31T05:47:04;19.5;;;13.4;;
32451;SDS011;45528;52.102;5.242;2022-10-31T05:50:17;21.9;;;14.8;;
32451;SDS011;45528;52.102;5.242;2022-10-31T05:51:54;20.6;;;14.0;;
32451;SDS011;45528;52.102;5.242;2022-10-31T05:53:30;20.9;;;13.8;;
32451;SDS011;45528;52.102;5.242;2022-10-31T05:56:44;18.8;;;13.5;;
32451;SDS011;45528;52.102;5.242;2022-10-31T05:58:20;24.5;;;14.2;;
32451;SDS011;45528;52.102;5.242;2022-10-31T05:59:56;21.4;;;13.7;;
32451;SDS011;45528;52.102;5.242;2022-10-31T06:03:09;23.0;;;15.0;;
32451;SDS011;45528;52.102;5.242;2022-10-31T06:04:45;23.3;;;14.6;;
32451;SDS011;45528;52.102;5.242;2022-10-31T06:06:22;22.5;;;14.4;;
32451;SDS011;45528;52.102;5.242;2022-10-31T06:07:58;24.2;;;15.3;;
32451;SDS011;45528;52.102;5.242;2022-10-31T06:11:10;21.5;;;15.1;;
32451;SDS011;45528;52.102;5.242;2022-10-31T06:12:46;21.0;;;14.9;;
32451;SDS011;45528;52.102;5.242;2022-10-31T06:14:23;23.2;;;15.8;;
32451;SDS011;45528;52.102;5.242;2022-10-31T06:17:36;21.0;;;15.0;;
32451;SDS011;45528;52.102;5.242;2022-10-31T06:19:12;22.3;;;15.8;;
32451;SDS011;45528;52.102;5.242;2022-10-31T06:20:48;25.0;;;16.9;;
32451;SDS011;45528;52.102;5.242;2022-10-31T06:24:02;26.2;;;17.0;;
32451;SDS011;45528;52.102;5.242;2022-10-31T06:25:38;24.9;;;16.3;;
32451;SDS011;45528;52.102;5.242;2022-10-31T06:27:15;25.6;;;17.11;;
32451;SDS011;45528;52.102;5.242;2022-10-31T06:28:51;28.3;;;19.0;;
32451;SDS011;45528;52.102;5.242;2022-10-31T06:32:03;26.9;;;18.41;;
32451;SDS011;45528;52.102;5.242;2022-10-31T06:33:40;28.6;;;18.11;;
32451;SDS011;45528;52.102;5.242;2022-10-31T06:35:17;36.31;;;23.3;;
32451;SDS011;45528;52.102;5.242;2022-10-31T06:38:29;38.81;;;22.7;;
32451;SDS011;45528;52.102;5.242;2022-10-31T06:40:05;33.0;;;19.7;;
32451;SDS011;45528;52.102;5.242;2022-10-31T06:41:42;34.81;;;20.9;;
32451;SDS011;45528;52.102;5.242;2022-10-31T06:44:56;33.3;;;21.0;;
32451;SDS011;45528;52.102;5.242;2022-10-31T06:46:32;30.6;;;19.8;;
32451;SDS011;45528;52.102;5.242;2022-10-31T06:48:08;36.0;;;20.8;;
32451;SDS011;45528;52.102;5.242;2022-10-31T06:49:44;35.1;;;20.9;;
32451;SDS011;45528;52.102;5.242;2022-10-31T06:52:57;34.71;;;20.0;;
32451;SDS011;45528;52.102;5.242;2022-10-31T06:54:34;33.9;;;19.5;;
32451;SDS011;45528;52.102;5.242;2022-10-31T06:56:10;37.81;;;22.3;;
32451;SDS011;45528;52.102;5.242;2022-10-31T06:59:26;37.6;;;22.6;;
32451;SDS011;45528;52.102;5.242;2022-10-31T07:01:02;42.1;;;22.1;;
32451;SDS011;45528;52.102;5.242;2022-10-31T07:02:38;46.5;;;24.0;;
32451;SDS011;45528;52.102;5.242;2022-10-31T07:05:50;41.3;;;23.0;;
32451;SDS011;45528;52.102;5.242;2022-10-31T07:07:27;44.6;;;23.3;;
32451;SDS011;45528;52.102;5.242;2022-10-31T07:09:03;42.5;;;22.8;;
32451;SDS011;45528;52.102;5.242;2022-10-31T07:10:40;40.4;;;22.7;;
32451;SDS011;45528;52.102;5.242;2022-10-31T07:13:54;40.4;;;22.7;;
32451;SDS011;45528;52.102;5.242;2022-10-31T07:15:33;42.5;;;23.3;;
32451;SDS011;45528;52.102;5.242;2022-10-31T07:17:13;37.6;;;21.8;;
32451;SDS011;45528;52.102;5.242;2022-10-31T07:20:27;41.4;;;25.1;;
32451;SDS011;45528;52.102;5.242;2022-10-31T07:22:03;42.8;;;24.1;;
32451;SDS011;45528;52.102;5.242;2022-10-31T07:23:39;34.4;;;22.0;;
32451;SDS011;45528;52.102;5.242;2022-10-31T07:26:51;32.9;;;21.9;;
32451;SDS011;45528;52.102;5.242;2022-10-31T07:28:28;39.0;;;21.8;;
32451;SDS011;45528;52.102;5.242;2022-10-31T07:30:08;33.3;;;21.7;;
32451;SDS011;45528;52.102;5.242;2022-10-31T07:31:48;31.5;;;20.3;;
32451;SDS011;45528;52.102;5.242;2022-10-31T07:35:02;34.81;;;20.6;;
32451;SDS011;45528;52.102;5.242;2022-10-31T07:36:38;33.3;;;20.8;;
32451;SDS011;45528;52.102;5.242;2022-10-31T07:38:14;31.5;;;20.41;;
32451;SDS011;45528;52.102;5.242;2022-10-31T07:41:27;29.9;;;20.41;;
32451;SDS011;45528;52.102;5.242;2022-10-31T07:43:04;29.2;;;20.0;;
32451;SDS011;45528;52.102;5.242;2022-10-31T07:44:41;29.3;;;20.0;;
32451;SDS011;45528;52.102;5.242;2022-10-31T07:46:17;32.21;;;21.2;;
32451;SDS011;45528;52.102;5.242;2022-10-31T07:49:30;31.5;;;20.41;;
32451;SDS011;45528;52.102;5.242;2022-10-31T07:51:06;33.1;;;21.7;;
32451;SDS011;45528;52.102;5.242;2022-10-31T07:52:42;28.3;;;19.7;;
32451;SDS011;45528;52.102;5.242;2022-10-31T07:55:56;29.9;;;20.3;;
32451;SDS011;45528;52.102;5.242;2022-10-31T07:57:32;29.9;;;20.41;;
32451;SDS011;45528;52.102;5.242;2022-10-31T07:59:08;31.2;;;20.9;;
32451;SDS011;45528;52.102;5.242;2022-10-31T08:02:22;33.3;;;21.4;;
32451;SDS011;45528;52.102;5.242;2022-10-31T08:03:59;34.1;;;21.5;;
32451;SDS011;45528;52.102;5.242;2022-10-31T08:05:36;30.7;;;20.7;;
32451;SDS011;45528;52.102;5.242;2022-10-31T08:07:13;31.7;;;20.3;;
32451;SDS011;45528;52.102;5.242;2022-10-31T08:10:25;35.21;;;22.5;;
32451;SDS011;45528;52.102;5.242;2022-10-31T08:12:03;33.4;;;21.5;;
32451;SDS011;45528;52.102;5.242;2022-10-31T08:13:40;35.6;;;21.8;;
32451;SDS011;45528;52.102;5.242;2022-10-31T08:16:52;34.21;;;22.9;;
32451;SDS011;45528;52.102;5.242;2022-10-31T08:18:29;33.8;;;22.5;;
32451;SDS011;45528;52.102;5.242;2022-10-31T08:20:06;33.21;;;22.2;;
32451;SDS011;45528;52.102;5.242;2022-10-31T08:23:19;38.0;;;23.6;;
32451;SDS011;45528;52.102;5.242;2022-10-31T08:24:56;34.4;;;22.3;;
32451;SDS011;45528;52.102;5.242;2022-10-31T08:26:32;37.71;;;23.2;;
32451;SDS011;45528;52.102;5.242;2022-10-31T08:28:10;36.5;;;23.9;;
32451;SDS011;45528;52.102;5.242;2022-10-31T08:31:25;42.5;;;24.9;;
32451;SDS011;45528;52.102;5.242;2022-10-31T08:33:03;40.0;;;24.3;;
32451;SDS011;45528;52.102;5.242;2022-10-31T08:34:41;36.9;;;23.7;;
32451;SDS011;45528;52.102;5.242;2022-10-31T08:37:54;40.81;;;25.0;;
32451;SDS011;45528;52.102;5.242;2022-10-31T08:39:31;41.4;;;24.6;;
32451;SDS011;45528;52.102;5.242;2022-10-31T08:41:07;41.8;;;24.7;;
32451;SDS011;45528;52.102;5.242;2022-10-31T08:42:43;41.9;;;25.9;;
32451;SDS011;45528;52.102;5.242;2022-10-31T08:45:57;43.7;;;26.3;;
32451;SDS011;45528;52.102;5.242;2022-10-31T08:47:33;41.1;;;26.2;;
32451;SDS011;45528;52.102;5.242;2022-10-31T08:49:09;38.0;;;24.4;;
32451;SDS011;45528;52.102;5.242;2022-10-31T08:52:23;40.6;;;25.5;;
32451;SDS011;45528;52.102;5.242;2022-10-31T08:53:59;39.5;;;25.7;;
32451;SDS011;45528;52.102;5.242;2022-10-31T08:55:36;36.9;;;23.5;;
32451;SDS011;45528;52.102;5.242;2022-10-31T08:58:52;42.5;;;25.3;;
32451;SDS011;45528;52.102;5.242;2022-10-31T09:00:28;41.3;;;24.1;;
32451;SDS011;45528;52.102;5.242;2022-10-31T09:02:04;40.31;;;23.9;;
32451;SDS011;45528;52.102;5.242;2022-10-31T09:03:40;39.9;;;24.3;;
32451;SDS011;45528;52.102;5.242;2022-10-31T09:06:53;40.31;;;25.3;;
32451;SDS011;45528;52.102;5.242;2022-10-31T09:08:29;40.5;;;24.2;;
32451;SDS011;45528;52.102;5.242;2022-10-31T09:10:07;42.1;;;25.3;;
32451;SDS011;45528;52.102;5.242;2022-10-31T09:13:20;40.0;;;24.7;;
32451;SDS011;45528;52.102;5.242;2022-10-31T09:14:56;39.0;;;26.2;;
32451;SDS011;45528;52.102;5.242;2022-10-31T09:16:33;36.71;;;24.0;;
32451;SDS011;45528;52.102;5.242;2022-10-31T09:19:46;38.71;;;24.4;;
32451;SDS011;45528;52.102;5.242;2022-10-31T09:21:22;38.21;;;24.6;;
32451;SDS011;45528;52.102;5.242;2022-10-31T09:22:59;34.0;;;22.4;;
32451;SDS011;45528;52.102;5.242;2022-10-31T09:24:37;39.1;;;24.2;;
32451;SDS011;45528;52.102;5.242;2022-10-31T09:27:50;36.31;;;23.3;;
32451;SDS011;45528;52.102;5.242;2022-10-31T09:29:26;35.21;;;23.7;;
32451;SDS011;45528;52.102;5.242;2022-10-31T09:31:02;35.0;;;23.5;;
32451;SDS011;45528;52.102;5.242;2022-10-31T09:34:14;36.4;;;24.0;;
32451;SDS011;45528;52.102;5.242;2022-10-31T09:35:51;36.81;;;23.4;;
32451;SDS011;45528;52.102;5.242;2022-10-31T09:37:27;36.6;;;23.0;;
32451;SDS011;45528;52.102;5.242;2022-10-31T09:40:40;35.5;;;22.7;;
32451;SDS011;45528;52.102;5.242;2022-10-31T09:42:24;34.5;;;22.2;;
32451;SDS011;45528;52.102;5.242;2022-10-31T09:44:26;32.4;;;21.6;;
32451;SDS011;45528;52.102;5.242;2022-10-31T09:46:14;32.4;;;21.0;;
32451;SDS011;45528;52.102;5.242;2022-10-31T09:48:04;33.8;;;22.4;;
32451;SDS011;45528;52.102;5.242;2022-10-31T09:50:14;31.4;;;21.6;;
32451;SDS011;45528;52.102;5.242;2022-10-31T09:51:57;34.4;;;20.7;;
32451;SDS011;45528;52.102;5.242;2022-10-31T09:55:35;36.1;;;22.0;;
32451;SDS011;45528;52.102;5.242;2022-10-31T09:57:15;30.4;;;20.6;;
32451;SDS011;45528;52.102;5.242;2022-10-31T09:59:01;32.1;;;20.41;;
32451;SDS011;45528;52.102;5.242;2022-10-31T10:00:40;32.6;;;21.1;;
32451;SDS011;45528;52.102;5.242;2022-10-31T10:02:18;28.3;;;18.8;;
32451;SDS011;45528;52.102;5.242;2022-10-31T10:05:51;28.1;;;18.61;;
32451;SDS011;45528;52.102;5.242;2022-10-31T10:07:37;30.4;;;18.7;;
32451;SDS011;45528;52.102;5.242;2022-10-31T10:09:20;24.4;;;17.3;;
32451;SDS011;45528;52.102;5.242;2022-10-31T10:11:05;26.4;;;17.61;;
32451;SDS011;45528;52.102;5.242;2022-10-31T10:13:05;25.1;;;17.0;;
32451;SDS011;45528;52.102;5.242;2022-10-31T10:15:19;27.4;;;17.5;;
32451;SDS011;45528;52.102;5.242;2022-10-31T10:18:05;22.6;;;16.2;;
32451;SDS011;45528;52.102;5.242;2022-10-31T10:19:58;24.4;;;15.7;;
32451;SDS011;45528;52.102;5.242;2022-10-31T10:21:51;20.8;;;14.0;;
32451;SDS011;45528;52.102;5.242;2022-10-31T10:23:44;20.8;;;13.9;;
32451;SDS011;45528;52.102;5.242;2022-10-31T10:25:33;21.7;;;13.4;;
32451;SDS011;45528;52.102;5.242;2022-10-31T10:29:01;21.0;;;13.9;;
32451;SDS011;45528;52.102;5.242;2022-10-31T10:30:54;20.8;;;13.6;;
32451;SDS011;45528;52.102;5.242;2022-10-31T10:32:37;19.41;;;12.9;;
32451;SDS011;45528;52.102;5.242;2022-10-31T10:34:19;21.5;;;13.3;;
32451;SDS011;45528;52.102;5.242;2022-10-31T10:36:03;17.41;;;12.5;;
32451;SDS011;45528;52.102;5.242;2022-10-31T10:39:25;19.5;;;13.1;;
32451;SDS011;45528;52.102;5.242;2022-10-31T10:41:10;18.41;;;12.5;;
32451;SDS011;45528;52.102;5.242;2022-10-31T10:43:26;18.2;;;12.3;;
32451;SDS011;45528;52.102;5.242;2022-10-31T10:48:02;18.91;;;13.0;;
32451;SDS011;45528;52.102;5.242;2022-10-31T10:49:44;19.61;;;13.6;;
32451;SDS011;45528;52.102;5.242;2022-10-31T10:51:27;19.91;;;12.7;;
32451;SDS011;45528;52.102;5.242;2022-10-31T10:53:24;20.8;;;13.0;;
32451;SDS011;45528;52.102;5.242;2022-10-31T10:55:15;21.4;;;13.8;;
32451;SDS011;45528;52.102;5.242;2022-10-31T10:57:03;20.11;;;13.9;;
32451;SDS011;45528;52.102;5.242;2022-10-31T10:58:50;22.5;;;12.8;;
32451;SDS011;45528;52.102;5.242;2022-10-31T11:02:17;23.2;;;13.5;;
32451;SDS011;45528;52.102;5.242;2022-10-31T11:03:59;18.8;;;13.0;;
32451;SDS011;45528;52.102;5.242;2022-10-31T11:05:39;19.61;;;12.8;;
32451;SDS011;45528;52.102;5.242;2022-10-31T11:07:22;19.11;;;12.1;;
32451;SDS011;45528;52.102;5.242;2022-10-31T11:10:45;19.61;;;13.0;;
32451;SDS011;45528;52.102;5.242;2022-10-31T11:12:33;18.3;;;12.3;;
32451;SDS011;45528;52.102;5.242;2022-10-31T11:14:12;20.7;;;12.9;;
32451;SDS011;45528;52.102;5.242;2022-10-31T11:15:51;18.8;;;12.8;;
32451;SDS011;45528;52.102;5.242;2022-10-31T11:17:36;21.4;;;13.1;;
32451;SDS011;45528;52.102;5.242;2022-10-31T11:21:03;19.7;;;13.5;;
32451;SDS011;45528;52.102;5.242;2022-10-31T11:22:41;23.9;;;14.1;;
32451;SDS011;45528;52.102;5.242;2022-10-31T11:24:20;19.7;;;13.8;;
32451;SDS011;45528;52.102;5.242;2022-10-31T11:25:58;20.9;;;13.7;;
32451;SDS011;45528;52.102;5.242;2022-10-31T11:29:13;22.6;;;14.3;;
32451;SDS011;45528;52.102;5.242;2022-10-31T11:30:52;23.4;;;15.0;;
32451;SDS011;45528;52.102;5.242;2022-10-31T11:32:33;27.9;;;15.4;;
32451;SDS011;45528;52.102;5.242;2022-10-31T11:35:54;24.7;;;15.6;;
32451;SDS011;45528;52.102;5.242;2022-10-31T11:37:32;25.0;;;16.3;;
32451;SDS011;45528;52.102;5.242;2022-10-31T11:39:15;27.1;;;15.6;;
32451;SDS011;45528;52.102;5.242;2022-10-31T11:40:56;27.4;;;17.41;;
32451;SDS011;45528;52.102;5.242;2022-10-31T11:44:18;32.6;;;19.41;;
32451;SDS011;45528;52.102;5.242;2022-10-31T11:45:58;33.0;;;19.2;;
32451;SDS011;45528;52.102;5.242;2022-10-31T11:47:36;30.6;;;19.3;;
32451;SDS011;45528;52.102;5.242;2022-10-31T11:49:13;33.1;;;19.11;;
32451;SDS011;45528;52.102;5.242;2022-10-31T11:52:33;34.21;;;19.3;;
32451;SDS011;45528;52.102;5.242;2022-10-31T11:54:16;30.3;;;18.91;;
32451;SDS011;45528;52.102;5.242;2022-10-31T11:56:03;35.31;;;19.7;;
32451;SDS011;45528;52.102;5.242;2022-10-31T11:57:47;33.21;;;20.41;;
32451;SDS011;45528;52.102;5.242;2022-10-31T11:59:26;32.0;;;19.2;;
32451;SDS011;45528;52.102;5.242;2022-10-31T12:02:42;36.71;;;20.6;;
32451;SDS011;45528;52.102;5.242;2022-10-31T12:04:18;34.5;;;19.91;;
32451;SDS011;45528;52.102;5.242;2022-10-31T12:06:05;32.3;;;19.3;;
32451;SDS011;45528;52.102;5.242;2022-10-31T12:07:46;36.0;;;21.1;;
32451;SDS011;45528;52.102;5.242;2022-10-31T12:11:20;34.9;;;20.6;;
32451;SDS011;45528;52.102;5.242;2022-10-31T12:13:08;39.21;;;20.41;;
32451;SDS011;45528;52.102;5.242;2022-10-31T12:15:13;38.0;;;21.7;;
32451;SDS011;45528;52.102;5.242;2022-10-31T12:17:26;37.5;;;20.7;;
32451;SDS011;45528;52.102;5.242;2022-10-31T12:19:13;35.4;;;20.5;;
32451;SDS011;45528;52.102;5.242;2022-10-31T12:21:04;34.4;;;21.2;;
32451;SDS011;45528;52.102;5.242;2022-10-31T12:22:55;42.3;;;20.7;;
32451;SDS011;45528;52.102;5.242;2022-10-31T12:24:44;29.9;;;18.8;;
32451;SDS011;45528;52.102;5.242;2022-10-31T12:26:38;34.4;;;21.2;;
32451;SDS011;45528;52.102;5.242;2022-10-31T12:30:21;32.21;;;20.5;;
32451;SDS011;45528;52.102;5.242;2022-10-31T12:32:10;31.5;;;19.8;;
32451;SDS011;45528;52.102;5.242;2022-10-31T12:34:06;32.1;;;20.41;;
32451;SDS011;45528;52.102;5.242;2022-10-31T12:36:10;36.31;;;20.6;;
32451;SDS011;45528;52.102;5.242;2022-10-31T12:38:04;36.6;;;20.11;;